Time;durP1;ratioP1;P1;durP2;ratioP2;P2;SDS_P1;SDS_P2;PMS_P1;PMS_P2;Temp;Humidity;BMP_temperature;BMP_pressure;BME280_temperature;BME280_humidity;BME280_pressure;Samples;Min_cycle;Max_cycle;Signal;HPM_P1;HPM_P2
2022/04/01 00:02:11;;;;;;;17.67;5.53;;;12.70;79.90;;;;;;5103579;27;20028;-59
2022/04/01 00:04:39;;;;;;;23.17;5.97;;;12.70;79.80;;;;;;5100865;27;20558;-59
2022/04/01 00:07:04;;;;;;;23.60;5.72;;;12.60;79.80;;;;;;5120320;27;20154;-60
2022/04/01 00:09:30;;;;;;;21.13;5.55;;;12.40;79.70;;;;;;5087052;27;20145;-60
2022/04/01 00:11:55;;;;;;;20.67;5.25;;;12.60;79.80;;;;;;5104098;27;20049;-60
2022/04/01 00:14:21;;;;;;;19.35;5.70;;;12.60;79.80;;;;;;5121130;27;20374;-60
2022/04/01 00:16:46;;;;;;;20.83;5.40;;;12.60;79.80;;;;;;5088051;27;20015;-59
2022/04/01 00:19:13;;;;;;;16.70;5.45;;;12.60;79.90;;;;;;5101852;27;20027;-59
2022/04/01 00:21:39;;;;;;;14.77;5.05;;;12.60;79.80;;;;;;5105578;27;20035;-59
2022/04/01 00:24:05;;;;;;;17.77;5.47;;;12.60;79.70;;;;;;5104478;27;20362;-59
2022/04/01 00:26:31;;;;;;;12.82;5.78;;;12.60;79.80;;;;;;5118767;27;20130;-60
2022/04/01 00:28:56;;;;;;;27.80;6.55;;;12.60;80.60;;;;;;5086145;27;20249;-58
2022/04/01 00:31:22;;;;;;;23.63;6.70;;;12.50;80.40;;;;;;5122348;27;20572;-59
2022/04/01 00:33:47;;;;;;;15.55;5.63;;;12.50;80.60;;;;;;5102256;27;20041;-59
2022/04/01 00:36:13;;;;;;;25.55;5.72;;;12.50;80.70;;;;;;5086975;27;20092;-59
2022/04/01 00:38:39;;;;;;;19.95;6.72;;;12.50;80.30;;;;;;5121026;27;20031;-59
2022/04/01 00:41:04;;;;;;;17.63;5.82;;;12.50;80.70;;;;;;5102440;27;20551;-59
2022/04/01 00:43:32;;;;;;;16.80;5.65;;;12.50;81.20;;;;;;5123675;27;20026;-59
2022/04/01 00:45:58;;;;;;;19.15;6.00;;;12.50;81.60;;;;;;5083613;27;20051;-59
2022/04/01 00:48:24;;;;;;;15.50;5.10;;;12.50;81.60;;;;;;5103345;27;20045;-58
2022/04/01 00:50:50;;;;;;;13.05;5.30;;;12.50;81.00;;;;;;5083796;27;20545;-60
2022/04/01 00:53:18;;;;;;;14.90;7.40;;;12.50;80.90;;;;;;5086805;27;20048;-60
2022/04/01 00:55:44;;;;;;;16.23;6.60;;;12.60;80.90;;;;;;5084672;27;20027;-58
2022/04/01 00:58:11;;;;;;;14.23;5.13;;;12.50;80.90;;;;;;5101482;27;20019;-59
2022/04/01 01:00:38;;;;;;;22.10;8.10;;;12.50;81.20;;;;;;5067474;27;20490;-59
2022/04/01 01:03:07;;;;;;;17.55;8.27;;;12.50;81.40;;;;;;5120905;27;20027;-59
2022/04/01 01:05:32;;;;;;;15.38;8.18;;;12.50;81.40;;;;;;5121205;27;20027;-59
2022/04/01 01:07:58;;;;;;;15.40;6.20;;;12.40;81.40;;;;;;5104094;27;20599;-60
2022/04/01 01:10:24;;;;;;;16.63;5.63;;;12.40;81.40;;;;;;5100182;27;20494;-58
2022/04/01 01:12:51;;;;;;;16.25;6.10;;;12.40;81.40;;;;;;5121612;27;20437;-60
2022/04/01 01:15:18;;;;;;;11.73;5.88;;;12.40;81.50;;;;;;5103571;27;20555;-60
2022/04/01 01:17:44;;;;;;;16.55;5.97;;;12.40;81.30;;;;;;5121184;27;20059;-60
2022/04/01 01:20:12;;;;;;;13.70;5.18;;;12.50;81.30;;;;;;5084381;27;20205;-60
2022/04/01 01:22:57;;;;;;;18.05;5.60;;;12.50;81.30;;;;;;5120453;27;20382;-59
2022/04/01 01:25:23;;;;;;;12.90;5.05;;;12.50;81.00;;;;;;5088591;27;20469;-60
2022/04/01 01:27:48;;;;;;;15.90;5.70;;;12.50;80.80;;;;;;5123664;27;20443;-59
2022/04/01 01:30:14;;;;;;;14.85;5.00;;;12.50;80.70;;;;;;5122739;27;20070;-59
2022/04/01 01:32:39;;;;;;;13.95;5.22;;;12.50;80.60;;;;;;5121847;27;20038;-60
2022/04/01 01:35:06;;;;;;;13.82;4.75;;;12.50;80.60;;;;;;5102688;27;20513;-60
2022/04/01 01:37:31;;;;;;;13.88;5.25;;;12.40;80.90;;;;;;5099360;27;20119;-59
2022/04/01 01:39:58;;;;;;;13.77;5.32;;;12.40;81.00;;;;;;5121663;27;20114;-60
2022/04/01 01:42:24;;;;;;;11.07;4.82;;;12.40;81.20;;;;;;5100997;27;20114;-59
2022/04/01 01:44:49;;;;;;;12.20;5.13;;;12.40;81.40;;;;;;5099848;27;20144;-60
2022/04/01 01:47:15;;;;;;;15.27;6.97;;;12.40;81.30;;;;;;5121157;27;20102;-60
2022/04/01 01:55:30;;;;;;;12.23;5.88;;;12.40;81.10;;;;;;5019080;28;20634;-60
2022/04/01 01:57:56;;;;;;;18.25;5.90;;;12.30;81.00;;;;;;5072631;28;20054;-58
2022/04/01 02:00:22;;;;;;;12.82;5.57;;;12.30;81.00;;;;;;5106552;28;20035;-60
2022/04/01 02:02:49;;;;;;;15.60;6.00;;;12.30;81.00;;;;;;5102515;28;20049;-60
2022/04/01 02:05:16;;;;;;;11.35;5.22;;;12.30;81.00;;;;;;5107555;28;20028;-60
2022/04/01 02:07:47;;;;;;;10.00;5.40;;;12.30;80.90;;;;;;5073743;28;20056;-59
2022/04/01 02:10:15;;;;;;;13.30;5.53;;;12.30;80.90;;;;;;5115842;28;20118;-60
2022/04/01 02:12:43;;;;;;;13.07;5.90;;;12.30;80.80;;;;;;5089530;28;20529;-59
2022/04/01 02:15:10;;;;;;;15.50;5.63;;;12.40;80.80;;;;;;5082513;28;20097;-59
2022/04/01 02:17:37;;;;;;;11.95;5.55;;;12.30;80.70;;;;;;5092164;28;21335;-60
2022/04/01 02:20:05;;;;;;;17.17;5.97;;;12.30;80.70;;;;;;5092440;28;20042;-60
2022/04/01 02:22:31;;;;;;;12.80;5.80;;;12.30;80.70;;;;;;5120319;27;20425;-58
2022/04/01 02:24:57;;;;;;;12.70;5.70;;;12.20;80.70;;;;;;5119668;28;20044;-60
2022/04/01 02:27:24;;;;;;;11.25;6.03;;;12.20;80.60;;;;;;5098325;28;20312;-58
2022/04/01 02:29:50;;;;;;;11.50;5.78;;;12.20;80.60;;;;;;5085608;28;20044;-59
2022/04/01 02:32:16;;;;;;;13.07;5.90;;;12.20;80.60;;;;;;5116993;28;20042;-59
2022/04/01 02:34:42;;;;;;;13.82;5.32;;;12.20;80.60;;;;;;5120526;27;20104;-59
2022/04/01 02:37:07;;;;;;;19.05;5.28;;;12.10;80.50;;;;;;5076106;28;20036;-60
2022/04/01 02:39:33;;;;;;;14.23;5.85;;;12.10;80.70;;;;;;5118354;28;20046;-60
2022/04/01 02:41:58;;;;;;;15.70;5.78;;;12.10;80.70;;;;;;5121900;28;20098;-58
2022/04/01 02:44:24;;;;;;;18.08;6.30;;;12.10;80.70;;;;;;5121430;28;20043;-59
2022/04/01 02:46:50;;;;;;;20.05;6.65;;;12.10;80.60;;;;;;5099985;28;20076;-60
2022/04/01 02:49:16;;;;;;;18.88;6.38;;;12.10;80.50;;;;;;5118878;27;20072;-59
2022/04/01 02:51:43;;;;;;;11.85;5.60;;;12.10;80.50;;;;;;5068371;28;20561;-59
2022/04/01 02:54:09;;;;;;;12.82;6.15;;;12.10;80.50;;;;;;5123920;27;20057;-60
2022/04/01 02:56:35;;;;;;;16.77;5.75;;;12.10;80.50;;;;;;5105937;27;20027;-59
2022/04/01 02:59:01;;;;;;;14.10;6.20;;;12.00;80.40;;;;;;5124017;27;20035;-60
2022/04/01 03:01:28;;;;;;;9.98;5.28;;;12.00;80.50;;;;;;5125404;27;20051;-60
2022/04/01 03:03:53;;;;;;;11.25;6.10;;;12.00;80.50;;;;;;5122049;27;20474;-59
2022/04/01 03:06:19;;;;;;;11.90;5.18;;;12.00;80.50;;;;;;5123113;27;20027;-59
2022/04/01 03:08:45;;;;;;;7.20;5.30;;;12.00;80.50;;;;;;5101976;27;20437;-59
2022/04/01 03:11:11;;;;;;;14.90;5.95;;;12.00;80.60;;;;;;5122276;27;20127;-60
2022/04/01 03:13:37;;;;;;;9.27;5.60;;;12.00;80.60;;;;;;5104585;27;20030;-60
2022/04/01 03:16:02;;;;;;;12.32;5.22;;;11.90;80.50;;;;;;5124501;27;20393;-60
2022/04/01 03:18:28;;;;;;;8.98;5.15;;;11.90;80.50;;;;;;5122979;27;20028;-59
2022/04/01 03:20:53;;;;;;;9.43;5.55;;;11.90;80.50;;;;;;5123858;27;20139;-59
2022/04/01 03:23:19;;;;;;;11.10;5.15;;;11.90;80.50;;;;;;5105621;27;20031;-60
2022/04/01 03:25:45;;;;;;;8.38;5.20;;;11.90;80.50;;;;;;5099214;27;20462;-59
2022/04/01 03:28:11;;;;;;;14.27;5.25;;;11.90;80.50;;;;;;5123370;27;20024;-58
2022/04/01 03:30:37;;;;;;;9.85;5.30;;;11.80;80.40;;;;;;5120089;27;20132;-59
2022/04/01 03:33:03;;;;;;;12.48;4.97;;;11.80;80.40;;;;;;5118067;27;20069;-59
2022/04/01 03:35:29;;;;;;;9.75;5.07;;;11.80;80.50;;;;;;5120185;27;20373;-59
2022/04/01 03:37:54;;;;;;;10.07;4.88;;;11.80;80.40;;;;;;5100141;28;20031;-60
2022/04/01 03:40:20;;;;;;;11.93;5.03;;;11.80;80.40;;;;;;5098463;27;20355;-59
2022/04/01 03:42:47;;;;;;;9.20;4.32;;;11.80;80.50;;;;;;5105454;27;20461;-60
2022/04/01 03:45:12;;;;;;;7.47;4.65;;;11.70;80.40;;;;;;5124592;27;20023;-58
2022/04/01 03:47:44;;;;;;;11.75;5.03;;;11.80;80.50;;;;;;5122661;27;20027;-60
2022/04/01 03:50:10;;;;;;;12.23;4.80;;;11.70;80.30;;;;;;5123193;27;20303;-60
2022/04/01 03:52:36;;;;;;;11.77;4.78;;;11.80;80.30;;;;;;5121518;27;20122;-60
2022/04/01 03:55:04;;;;;;;12.68;4.68;;;11.80;80.30;;;;;;5121807;27;20047;-60
2022/04/01 03:57:35;;;;;;;8.65;4.72;;;11.80;80.30;;;;;;5103418;27;20047;-60
2022/04/01 04:00:00;;;;;;;10.27;4.65;;;11.70;80.20;;;;;;5103285;27;20152;-59
2022/04/01 04:02:26;;;;;;;8.23;4.13;;;11.70;80.20;;;;;;5071181;27;20110;-59
2022/04/01 04:04:53;;;;;;;7.97;4.70;;;11.70;80.20;;;;;;5101204;27;20035;-59
2022/04/01 04:07:19;;;;;;;12.05;4.65;;;11.70;80.30;;;;;;5106858;27;20043;-59
2022/04/01 04:09:44;;;;;;;7.38;5.00;;;11.70;80.30;;;;;;5102964;27;20070;-59
2022/04/01 04:12:13;;;;;;;12.48;5.07;;;11.70;80.30;;;;;;5103779;27;20084;-58
2022/04/01 04:14:40;;;;;;;8.10;4.63;;;11.70;80.30;;;;;;5119586;27;20026;-60
2022/04/01 04:17:14;;;;;;;9.55;5.03;;;11.70;80.30;;;;;;5100903;27;20042;-60
2022/04/01 04:20:02;;;;;;;10.13;5.30;;;11.60;80.30;;;;;;5103019;27;20060;-59
2022/04/01 04:22:57;;;;;;;9.20;5.78;;;11.60;80.30;;;;;;5101784;27;20161;-59
2022/04/01 04:25:25;;;;;;;7.93;4.95;;;11.60;80.20;;;;;;5105819;27;20046;-60
2022/04/01 04:27:57;;;;;;;11.57;5.03;;;11.60;80.20;;;;;;5086131;27;20027;-60
2022/04/01 04:30:28;;;;;;;12.50;5.68;;;11.50;80.20;;;;;;5104530;27;20202;-59
2022/04/01 04:32:57;;;;;;;11.63;5.63;;;11.60;80.30;;;;;;5106408;27;20023;-59
2022/04/01 04:35:23;;;;;;;32.08;8.65;;;11.60;80.90;;;;;;5104506;27;20493;-60
2022/04/01 04:37:48;;;;;;;96.85;13.45;;;11.60;80.20;;;;;;5104280;27;20192;-60
2022/04/01 04:40:15;;;;;;;178.75;18.50;;;11.60;80.20;;;;;;5087151;27;20509;-60
2022/04/01 04:42:45;;;;;;;171.15;18.42;;;11.60;80.10;;;;;;5122275;27;20545;-61
2022/04/01 04:45:12;;;;;;;366.40;34.95;;;11.60;80.10;;;;;;5121499;27;20031;-61
2022/04/01 04:47:37;;;;;;;140.00;17.45;;;11.50;80.10;;;;;;5119439;27;20203;-60
2022/04/01 04:50:03;;;;;;;169.75;17.25;;;11.60;80.10;;;;;;5085977;27;20039;-58
2022/04/01 04:52:31;;;;;;;158.52;15.50;;;11.50;80.00;;;;;;5123778;27;20114;-59
2022/04/01 04:54:56;;;;;;;132.25;15.02;;;11.50;80.00;;;;;;5123614;27;20051;-60
2022/04/01 04:57:22;;;;;;;138.88;15.43;;;11.50;80.00;;;;;;5104433;27;20046;-59
2022/04/01 04:59:48;;;;;;;111.82;13.48;;;11.50;80.00;;;;;;5123522;27;20338;-60
2022/04/01 05:02:18;;;;;;;114.18;12.63;;;11.50;80.00;;;;;;5118863;27;20031;-60
2022/04/01 05:05:05;;;;;;;100.75;12.95;;;11.50;80.00;;;;;;5086171;27;20055;-60
2022/04/01 05:07:55;;;;;;;101.63;12.65;;;11.50;80.00;;;;;;5088204;27;20815;-59
2022/04/01 05:10:25;;;;;;;105.30;13.05;;;11.40;79.90;;;;;;5102478;27;20331;-59
2022/04/01 05:13:28;;;;;;;109.03;14.57;;;11.40;79.90;;;;;;5102131;27;20023;-60
2022/04/01 05:15:53;;;;;;;84.05;11.88;;;11.40;80.10;;;;;;5099278;27;20071;-59
2022/04/01 05:18:29;;;;;;;91.85;11.77;;;11.40;80.10;;;;;;5101042;27;20507;-60
2022/04/01 05:20:58;;;;;;;95.80;13.07;;;11.40;80.00;;;;;;5086628;27;20038;-60
2022/04/01 05:23:51;;;;;;;84.43;10.75;;;11.40;80.10;;;;;;5102706;27;20122;-60
2022/04/01 05:26:20;;;;;;;80.63;11.13;;;11.40;80.20;;;;;;5103719;27;20042;-60
2022/04/01 05:28:48;;;;;;;65.50;10.43;;;11.30;80.10;;;;;;5098811;27;20058;-60
2022/04/01 05:31:24;;;;;;;80.80;10.95;;;11.30;80.20;;;;;;5078818;27;20047;-59
2022/04/01 05:34:09;;;;;;;87.15;11.13;;;11.30;80.10;;;;;;5080660;28;20051;-60
2022/04/01 05:36:35;;;;;;;81.30;11.43;;;11.40;80.30;;;;;;5083927;27;20024;-60
2022/04/01 05:39:00;;;;;;;66.95;9.57;;;11.30;80.10;;;;;;5085540;27;20027;-58
2022/04/01 05:41:26;;;;;;;73.50;9.57;;;11.30;80.00;;;;;;5086854;28;20035;-61
2022/04/01 05:43:51;;;;;;;46.42;9.45;;;11.30;80.00;;;;;;5085741;28;20028;-59
2022/04/01 05:46:19;;;;;;;63.13;8.48;;;11.20;80.00;;;;;;5074106;27;20180;-60
2022/04/01 05:48:46;;;;;;;61.38;8.55;;;11.20;80.10;;;;;;5082718;28;20028;-60
2022/04/01 05:51:13;;;;;;;78.95;8.50;;;11.20;80.10;;;;;;5081682;28;20147;-59
2022/04/01 05:53:39;;;;;;;54.08;9.48;;;11.20;80.10;;;;;;5067361;28;20379;-59
2022/04/01 05:56:05;;;;;;;61.47;9.38;;;11.20;80.30;;;;;;5086930;28;20039;-59
2022/04/01 05:58:30;;;;;;;56.83;8.25;;;11.10;80.20;;;;;;5088029;28;20584;-60
2022/04/01 06:01:05;;;;;;;73.25;8.70;;;11.10;80.20;;;;;;5093511;28;20475;-60
2022/04/01 06:03:39;;;;;;;68.20;9.05;;;11.10;80.20;;;;;;5086590;28;20035;-58
2022/04/01 06:06:18;;;;;;;58.67;8.02;;;11.10;80.20;;;;;;5082837;28;20475;-60
2022/04/01 06:08:50;;;;;;;58.50;9.00;;;11.10;80.10;;;;;;5080557;28;20040;-60
2022/04/01 06:11:32;;;;;;;53.08;8.38;;;11.10;80.00;;;;;;5103103;28;20035;-58
2022/04/01 06:14:04;;;;;;;71.97;9.27;;;11.10;80.00;;;;;;5083151;28;20043;-60
2022/04/01 06:17:05;;;;;;;53.50;7.15;;;11.10;80.10;;;;;;5085375;28;20389;-58
2022/04/01 06:19:40;;;;;;;50.55;8.13;;;11.10;80.10;;;;;;5053986;28;20023;-60
2022/04/01 06:22:14;;;;;;;38.97;6.68;;;11.00;80.00;;;;;;5079606;28;20020;-59
2022/04/01 06:25:12;;;;;;;42.38;6.68;;;11.00;80.00;;;;;;5074038;28;20066;-58
2022/04/01 06:27:42;;;;;;;31.02;6.28;;;11.00;80.10;;;;;;5082631;27;20027;-59
2022/04/01 06:30:09;;;;;;;36.85;5.55;;;11.00;79.90;;;;;;5102545;27;20177;-60
2022/04/01 06:32:45;;;;;;;40.15;6.13;;;11.00;79.80;;;;;;5083276;28;20026;-60
2022/04/01 06:35:28;;;;;;;27.17;5.85;;;11.00;79.90;;;;;;5100768;28;20096;-61
2022/04/01 06:38:02;;;;;;;26.83;4.95;;;11.00;80.10;;;;;;5101692;28;21478;-59
2022/04/01 06:40:52;;;;;;;27.80;5.10;;;10.90;79.80;;;;;;5082687;28;20655;-60
2022/04/01 06:43:17;;;;;;;234.15;19.83;;;10.90;80.10;;;;;;5084475;28;20038;-60
2022/04/01 06:45:43;;;;;;;75.28;8.25;;;10.90;80.20;;;;;;5084269;28;20127;-59
2022/04/01 06:48:09;;;;;;;39.17;5.80;;;10.90;80.20;;;;;;5103557;28;20042;-60
2022/04/01 06:50:34;;;;;;;35.17;6.60;;;10.90;80.00;;;;;;5088284;28;20024;-59
2022/04/01 06:53:00;;;;;;;44.75;5.90;;;10.90;80.00;;;;;;5086378;28;20077;-58
2022/04/01 06:55:26;;;;;;;38.45;6.05;;;10.90;80.00;;;;;;5085606;28;20040;-59
2022/04/01 06:57:52;;;;;;;28.25;5.60;;;10.90;80.50;;;;;;5102557;28;20031;-59
2022/04/01 07:00:18;;;;;;;36.63;5.28;;;10.90;80.20;;;;;;5081455;28;20221;-61
2022/04/01 07:02:44;;;;;;;38.28;5.63;;;10.90;80.30;;;;;;5083612;28;20222;-61
2022/04/01 07:05:10;;;;;;;43.03;5.22;;;10.90;80.40;;;;;;5065405;28;20470;-62
2022/04/01 07:07:36;;;;;;;26.77;5.25;;;10.80;80.20;;;;;;5081483;28;20024;-62
2022/04/01 07:10:04;;;;;;;27.25;5.72;;;10.80;80.00;;;;;;5049566;28;20039;-62
2022/04/01 07:12:30;;;;;;;48.38;5.30;;;10.80;80.30;;;;;;5083782;27;20051;-61
2022/04/01 07:14:56;;;;;;;25.17;4.60;;;10.80;80.30;;;;;;5082126;28;20020;-60
2022/04/01 07:17:21;;;;;;;38.72;5.95;;;10.80;80.20;;;;;;5100471;27;20039;-57
2022/04/01 07:19:47;;;;;;;36.88;5.28;;;10.70;80.20;;;;;;5086127;28;20636;-58
2022/04/01 07:22:13;;;;;;;25.15;4.40;;;10.80;81.20;;;;;;5100892;28;20158;-58
2022/04/01 07:24:39;;;;;;;38.03;5.40;;;10.70;80.30;;;;;;5081917;28;20119;-59
2022/04/01 07:27:04;;;;;;;65.40;8.10;;;10.70;80.20;;;;;;5098925;27;20036;-58
2022/04/01 07:29:30;;;;;;;63.22;6.75;;;10.70;80.20;;;;;;5101885;27;20042;-59
2022/04/01 07:34:42;;;;;;;44.97;5.82;;;10.70;80.90;;;;;;5091714;27;20121;-61
2022/04/01 07:37:09;;;;;;;41.90;6.38;;;10.70;80.40;;;;;;5122074;27;20604;-62
2022/04/01 07:39:34;;;;;;;40.13;5.57;;;10.60;80.40;;;;;;5102250;27;20027;-58
2022/04/01 07:42:00;;;;;;;60.38;9.35;;;10.60;80.50;;;;;;5121236;27;20071;-59
2022/04/01 07:44:26;;;;;;;51.75;6.90;;;10.60;80.60;;;;;;5115626;27;20046;-59
2022/04/01 07:46:51;;;;;;;54.15;8.32;;;10.60;80.60;;;;;;5101902;27;20036;-60
2022/04/01 07:49:17;;;;;;;53.08;7.53;;;10.60;80.60;;;;;;5102785;27;20028;-58
2022/04/01 07:51:46;;;;;;;89.57;9.30;;;10.60;80.60;;;;;;5081314;27;20107;-59
2022/04/01 07:54:12;;;;;;;85.32;9.77;;;10.60;80.60;;;;;;5103512;27;20031;-65
2022/04/01 07:56:40;;;;;;;68.03;8.32;;;10.60;81.10;;;;;;5118826;27;20037;-61
2022/04/01 07:59:08;;;;;;;74.00;8.38;;;10.60;80.80;;;;;;5086090;27;20567;-60
2022/04/01 08:01:34;;;;;;;72.50;8.65;;;10.60;80.60;;;;;;5082650;27;20114;-59
2022/04/01 08:04:00;;;;;;;85.45;9.43;;;10.60;80.60;;;;;;5099805;27;20019;-59
2022/04/01 08:06:26;;;;;;;74.95;9.23;;;10.60;80.80;;;;;;5120277;27;20024;-61
2022/04/01 08:08:52;;;;;;;69.88;8.43;;;10.60;80.90;;;;;;5101022;27;20067;-59
2022/04/01 08:11:17;;;;;;;65.47;9.10;;;10.60;80.90;;;;;;5085512;27;20481;-58
2022/04/01 08:13:43;;;;;;;63.55;8.18;;;10.60;80.90;;;;;;5120173;27;20039;-62
2022/04/01 08:16:10;;;;;;;88.03;9.23;;;10.60;81.20;;;;;;5119129;27;20023;-59
2022/04/01 08:18:36;;;;;;;86.18;10.48;;;10.60;81.30;;;;;;5112530;27;20019;-60
2022/04/01 08:21:01;;;;;;;76.05;8.68;;;10.60;81.20;;;;;;5098914;27;20035;-59
2022/04/01 08:23:30;;;;;;;108.60;10.95;;;10.60;81.30;;;;;;5119418;27;20035;-60
2022/04/01 08:25:56;;;;;;;89.05;10.43;;;10.60;81.00;;;;;;5111025;27;20088;-59
2022/04/01 08:28:22;;;;;;;100.07;12.15;;;10.70;81.10;;;;;;5098641;27;20023;-58
2022/04/01 08:30:47;;;;;;;116.18;12.95;;;10.70;81.00;;;;;;5102136;27;20043;-60
2022/04/01 08:33:17;;;;;;;109.38;12.82;;;10.70;81.20;;;;;;5118719;27;20046;-59
2022/04/01 08:35:42;;;;;;;100.47;11.98;;;10.70;81.30;;;;;;5101577;27;20103;-58
2022/04/01 08:38:09;;;;;;;144.45;16.70;;;10.70;81.50;;;;;;5112940;27;20462;-59
2022/04/01 08:40:34;;;;;;;103.57;13.32;;;10.80;81.80;;;;;;5084426;27;20032;-59
2022/04/01 08:43:00;;;;;;;113.80;12.07;;;10.70;81.70;;;;;;5118067;27;20653;-59
2022/04/01 08:45:25;;;;;;;127.95;12.20;;;10.70;81.80;;;;;;5119496;27;20755;-59
2022/04/01 08:47:51;;;;;;;81.60;11.70;;;10.70;81.50;;;;;;5120212;27;20077;-59
2022/04/01 08:50:16;;;;;;;179.40;18.25;;;10.70;81.20;;;;;;5120398;27;20854;-60
2022/04/01 08:52:42;;;;;;;161.93;18.55;;;10.70;81.40;;;;;;5118653;27;20037;-60
2022/04/01 08:55:09;;;;;;;149.85;14.13;;;10.70;81.80;;;;;;5112868;27;20039;-59
2022/04/01 08:57:38;;;;;;;116.15;15.68;;;10.70;81.80;;;;;;5091872;27;20044;-59
2022/04/01 09:00:16;;;;;;;134.18;14.98;;;10.70;81.60;;;;;;5101673;27;20027;-60
2022/04/01 09:02:42;;;;;;;130.70;14.63;;;10.70;81.60;;;;;;5118389;27;20023;-59
2022/04/01 09:05:08;;;;;;;136.32;16.80;;;10.70;81.80;;;;;;5102175;27;20122;-60
2022/04/01 09:07:34;;;;;;;150.93;18.70;;;10.70;82.10;;;;;;5080484;27;20038;-60
2022/04/01 09:10:07;;;;;;;148.45;16.13;;;10.80;82.60;;;;;;5099213;27;20031;-60
2022/04/01 09:12:34;;;;;;;122.68;14.38;;;10.80;82.10;;;;;;5114660;27;20679;-60
2022/04/01 09:14:59;;;;;;;111.00;14.73;;;10.80;81.80;;;;;;5096758;27;20047;-59
2022/04/01 09:17:46;;;;;;;112.40;14.65;;;10.70;81.90;;;;;;5111871;27;20111;-60
2022/04/01 09:20:12;;;;;;;118.18;15.07;;;10.80;82.00;;;;;;5098589;27;20037;-60
2022/04/01 09:22:38;;;;;;;137.50;15.23;;;10.70;81.60;;;;;;5117579;27;20032;-59
2022/04/01 09:25:05;;;;;;;102.43;13.15;;;10.80;81.80;;;;;;5114917;27;20107;-59
2022/04/01 09:27:51;;;;;;;135.20;17.40;;;10.80;81.70;;;;;;5113691;27;20107;-59
2022/04/01 09:30:17;;;;;;;163.02;17.80;;;10.80;82.20;;;;;;5092670;27;20051;-59
2022/04/01 09:32:46;;;;;;;135.30;15.75;;;10.80;82.30;;;;;;5118064;27;20034;-60
2022/04/01 09:35:12;;;;;;;126.78;15.38;;;10.80;82.20;;;;;;5098462;27;20037;-59
2022/04/01 09:37:40;;;;;;;130.98;15.27;;;10.80;82.50;;;;;;5084175;27;20094;-58
2022/04/01 09:40:06;;;;;;;114.40;15.18;;;10.80;81.90;;;;;;5092293;27;20023;-59
2022/04/01 09:42:31;;;;;;;111.32;14.77;;;10.80;82.30;;;;;;5110488;27;20037;-60
2022/04/01 09:45:00;;;;;;;98.85;14.25;;;10.80;81.80;;;;;;5094102;27;20427;-60
2022/04/01 09:47:26;;;;;;;132.32;16.33;;;10.80;81.80;;;;;;5099099;27;20553;-59
2022/04/01 09:49:55;;;;;;;147.13;17.63;;;10.80;81.90;;;;;;5113616;27;20114;-59
2022/04/01 09:52:22;;;;;;;126.95;17.33;;;10.80;82.30;;;;;;5111655;27;20139;-58
2022/04/01 09:54:47;;;;;;;98.50;13.25;;;10.80;82.70;;;;;;5078866;27;20051;-59
2022/04/01 09:57:14;;;;;;;87.07;12.38;;;10.80;82.30;;;;;;5107633;27;20360;-60
2022/04/01 09:59:41;;;;;;;107.80;13.77;;;10.80;81.70;;;;;;5076478;27;20053;-58
2022/04/01 10:02:06;;;;;;;91.53;12.90;;;10.80;81.60;;;;;;5091892;28;20637;-59
2022/04/01 10:04:32;;;;;;;113.35;13.35;;;10.80;81.40;;;;;;5115838;27;20019;-60
2022/04/01 10:06:58;;;;;;;87.70;13.25;;;10.80;81.30;;;;;;5092526;28;20602;-60
2022/04/01 10:09:24;;;;;;;94.90;12.30;;;10.80;81.60;;;;;;5094673;28;20039;-60
2022/04/01 10:11:50;;;;;;;95.10;13.93;;;10.80;81.50;;;;;;5111074;27;21566;-60
2022/04/01 10:14:16;;;;;;;110.90;14.77;;;10.80;81.50;;;;;;5058956;28;20500;-60
2022/04/01 10:16:43;;;;;;;84.63;11.90;;;10.80;81.60;;;;;;5077916;28;20444;-59
2022/04/01 10:19:13;;;;;;;90.75;12.45;;;10.80;81.50;;;;;;5093156;27;20118;-60
2022/04/01 10:21:43;;;;;;;117.75;15.27;;;10.80;81.50;;;;;;5072699;27;20027;-59
2022/04/01 10:24:47;;;;;;;111.50;14.30;;;10.80;81.80;;;;;;5090756;27;20042;-60
2022/04/01 10:27:34;;;;;;;126.10;14.35;;;10.70;82.00;;;;;;5104938;27;20030;-58
2022/04/01 10:30:00;;;;;;;116.13;14.40;;;10.70;82.10;;;;;;5088366;28;20203;-60
2022/04/01 10:32:30;;;;;;;118.68;15.38;;;10.70;81.70;;;;;;5071569;28;20549;-60
2022/04/01 10:34:57;;;;;;;104.32;13.52;;;10.70;81.90;;;;;;5076204;28;20474;-59
2022/04/01 10:37:25;;;;;;;120.15;16.10;;;10.70;82.40;;;;;;5055014;28;20069;-59
2022/04/01 10:39:51;;;;;;;154.27;16.27;;;10.80;82.70;;;;;;5056086;28;20052;-60
2022/04/01 10:42:17;;;;;;;134.93;16.77;;;10.80;83.00;;;;;;5054810;28;20478;-59
2022/04/01 10:44:43;;;;;;;112.90;13.90;;;10.80;82.70;;;;;;5097951;28;20036;-60
2022/04/01 10:47:09;;;;;;;95.72;14.00;;;10.80;82.70;;;;;;5068876;28;20028;-60
2022/04/01 10:52:21;;;;;;;115.03;16.17;;;10.80;82.30;;;;;;5078528;28;20050;-59
2022/04/01 10:55:02;;;;;;;79.47;11.43;;;10.80;82.70;;;;;;5058897;28;21439;-59
2022/04/01 10:57:32;;;;;;;68.60;10.82;;;10.80;82.20;;;;;;5075154;28;20247;-58
2022/04/01 11:00:07;;;;;;;80.30;12.50;;;10.80;82.00;;;;;;5057141;28;20110;-59
2022/04/01 11:02:32;;;;;;;70.57;11.07;;;10.80;82.00;;;;;;5067946;28;20089;-59
2022/04/01 11:05:00;;;;;;;88.03;12.38;;;10.80;82.10;;;;;;5073744;28;20449;-59
2022/04/01 11:07:25;;;;;;;97.25;13.68;;;10.80;82.10;;;;;;5094919;28;20112;-60
2022/04/01 11:09:55;;;;;;;99.90;14.30;;;10.80;82.30;;;;;;5077716;28;20085;-59
2022/04/01 11:12:21;;;;;;;91.32;12.23;;;10.80;83.10;;;;;;5093747;28;20046;-58
2022/04/01 11:14:53;;;;;;;122.95;14.57;;;10.80;82.40;;;;;;5081731;28;20024;-59
2022/04/01 11:17:19;;;;;;;91.55;13.57;;;10.80;82.50;;;;;;5096078;27;20027;-59
2022/04/01 11:20:07;;;;;;;84.03;11.80;;;10.90;82.70;;;;;;5054704;28;20216;-59
2022/04/01 11:22:42;;;;;;;98.30;12.43;;;10.90;82.80;;;;;;5074461;27;20042;-59
2022/04/01 11:25:11;;;;;;;111.85;14.05;;;10.90;82.10;;;;;;5088032;27;20024;-59
2022/04/01 11:27:37;;;;;;;86.70;12.52;;;10.80;82.70;;;;;;5056031;28;20028;-59
2022/04/01 11:30:07;;;;;;;76.90;11.13;;;10.80;83.00;;;;;;5075861;27;20072;-60
2022/04/01 11:32:37;;;;;;;72.30;9.88;;;10.80;82.00;;;;;;5079913;27;20115;-59
2022/04/01 11:35:04;;;;;;;79.90;11.63;;;10.80;81.80;;;;;;5110711;27;20131;-59
2022/04/01 11:37:31;;;;;;;65.68;8.95;;;10.80;82.00;;;;;;5100237;27;20429;-59
2022/04/01 11:40:12;;;;;;;61.22;9.75;;;10.80;81.80;;;;;;5091586;27;20466;-60
2022/04/01 11:42:58;;;;;;;81.32;10.35;;;10.80;81.80;;;;;;5082908;27;20557;-59
2022/04/01 11:45:27;;;;;;;52.88;9.50;;;10.70;82.10;;;;;;5115809;27;20031;-59
2022/04/01 11:47:53;;;;;;;69.47;8.82;;;10.70;81.80;;;;;;5110111;27;20039;-59
2022/04/01 11:50:20;;;;;;;55.88;10.07;;;10.70;81.80;;;;;;5091199;27;20058;-58
2022/04/01 11:52:48;;;;;;;77.85;10.07;;;10.70;82.10;;;;;;5075320;28;20221;-59
2022/04/01 11:55:15;;;;;;;63.42;8.80;;;10.70;82.80;;;;;;5078820;27;20179;-59
2022/04/01 11:57:40;;;;;;;70.03;9.88;;;10.70;81.80;;;;;;5092402;27;20069;-58
2022/04/01 12:00:13;;;;;;;69.13;9.10;;;10.70;82.50;;;;;;5077383;27;20074;-58
2022/04/01 12:02:39;;;;;;;50.50;8.38;;;10.70;82.00;;;;;;5079004;27;20039;-59
2022/04/01 12:05:05;;;;;;;64.03;8.55;;;10.70;81.70;;;;;;5098449;27;20027;-60
2022/04/01 12:10:25;;;;;;;74.25;8.23;;;10.70;81.70;;;;;;5098186;27;20424;-59
2022/04/01 12:12:59;;;;;;;95.60;9.73;;;10.70;81.50;;;;;;5097475;27;20090;-60
2022/04/01 12:15:40;;;;;;;51.83;7.65;;;10.70;81.60;;;;;;5078572;27;20550;-59
2022/04/01 12:18:07;;;;;;;59.45;8.18;;;10.70;81.50;;;;;;5079449;27;20028;-59
2022/04/01 12:20:40;;;;;;;67.70;8.75;;;10.70;81.50;;;;;;5091953;27;20027;-62
2022/04/01 12:23:06;;;;;;;53.95;8.18;;;10.70;81.10;;;;;;5082067;27;20166;-61
2022/04/01 12:25:33;;;;;;;56.67;8.68;;;10.60;81.20;;;;;;5097528;27;20031;-60
2022/04/01 12:28:01;;;;;;;43.92;6.65;;;10.60;81.20;;;;;;5078842;27;20031;-62
2022/04/01 12:30:44;;;;;;;46.88;6.88;;;10.60;81.30;;;;;;5094587;27;20043;-61
2022/04/01 12:33:11;;;;;;;47.53;7.05;;;10.60;81.00;;;;;;5086795;27;20031;-59
2022/04/01 12:35:55;;;;;;;64.57;9.18;;;10.50;80.80;;;;;;5075033;27;20043;-59
2022/04/01 12:38:21;;;;;;;43.25;7.28;;;10.50;81.20;;;;;;5107212;27;20084;-58
2022/04/01 12:40:47;;;;;;;39.58;6.25;;;10.50;81.20;;;;;;5077142;27;20114;-58
2022/04/01 12:43:41;;;;;;;57.72;7.90;;;10.50;80.90;;;;;;5117501;27;20027;-58
2022/04/01 12:46:33;;;;;;;43.67;6.57;;;10.40;81.00;;;;;;5108530;27;20487;-59
2022/04/01 12:49:13;;;;;;;40.03;6.88;;;10.40;81.00;;;;;;5095092;27;21576;-60
2022/04/01 12:51:41;;;;;;;36.90;7.15;;;10.40;80.90;;;;;;5091505;27;20394;-59
2022/04/01 12:54:11;;;;;;;46.72;6.35;;;10.40;80.70;;;;;;5116118;27;20030;-60